<?xml version="1.0" encoding="UTF-8" standalone="no" ?>
<gpx xmlns="http://www.topografix.com/GPX/1/1" xmlns:xsi="http://www.w3.org/2001/XMLSchema-instance" xsi:schemaLocation="http://www.topografix.com/GPX/1/1 http://www.topografix.com/GPX/1/1/gpx.xsd" version="1.1" creator="VisuGPX - https://www.visugpx.com">
  <metadata>
    <name>Velo</name>
    <desc><![CDATA[idor:10246719_102515280_10794639_12973163_1418743_13428926_12998252_13558460_14716825_14357364_14251590]]></desc>
  </metadata>
  <trk>
    <name><![CDATA[BasseGoulaine_DomicileTourBG_35km-12977199]]></name>
    <extensions>
      <line xmlns="http://www.topografix.com/GPX/gpx_style/0/2">
        <color>880088</color>
        <width>4</width>
      </line>
    </extensions>
    <trkseg>
      <trkpt lat="47.26918" lon="-1.54495">
        <ele>28</ele>
        <time>2023-11-15T08:10:48Z</time>
      </trkpt>
      <trkpt lat="47.26835" lon="-1.54554">
        <ele>29</ele>
        <time>2023-11-15T08:12:02Z</time>
      </trkpt>
      <trkpt lat="47.26762" lon="-1.54483">
        <ele>28</ele>
        <time>2023-11-15T08:13:12Z</time>
      </trkpt>
      <trkpt lat="47.26589" lon="-1.54457">
        <ele>23</ele>
        <time>2023-11-15T08:15:31Z</time>
      </trkpt>
      <trkpt lat="47.26544" lon="-1.54396">
        <ele>22</ele>
        <time>2023-11-15T08:16:20Z</time>
      </trkpt>
      <trkpt lat="47.26433" lon="-1.54457">
        <ele>19</ele>
        <time>2023-11-15T08:17:55Z</time>
      </trkpt>
      <trkpt lat="47.2626" lon="-1.54289">
        <ele>19</ele>
        <time>2023-11-15T08:20:41Z</time>
      </trkpt>
      <trkpt lat="47.25865" lon="-1.54284">
        <ele>28</ele>
        <time>2023-11-15T08:25:57Z</time>
      </trkpt>
      <trkpt lat="47.25702" lon="-1.53942">
        <ele>9</ele>
        <time>2023-11-15T08:29:44Z</time>
      </trkpt>
      <trkpt lat="47.2565" lon="-1.53947">
        <ele>9</ele>
        <time>2023-11-15T08:30:26Z</time>
      </trkpt>
      <trkpt lat="47.25609" lon="-1.54028">
        <ele>14</ele>
        <time>2023-11-15T08:31:21Z</time>
      </trkpt>
      <trkpt lat="47.25505" lon="-1.5362">
        <ele>18</ele>
        <time>2023-11-15T08:35:18Z</time>
      </trkpt>
      <trkpt lat="47.25314" lon="-1.52987">
        <ele>27</ele>
        <time>2023-11-15T08:41:34Z</time>
      </trkpt>
      <trkpt lat="47.2485" lon="-1.5212">
        <ele>24</ele>
        <time>2023-11-15T08:51:34Z</time>
      </trkpt>
      <trkpt lat="47.24663" lon="-1.51905">
        <ele>21</ele>
        <time>2023-11-15T08:54:44Z</time>
      </trkpt>
      <trkpt lat="47.24814" lon="-1.51618">
        <ele>24</ele>
        <time>2023-11-15T08:58:01Z</time>
      </trkpt>
      <trkpt lat="47.24638" lon="-1.5134">
        <ele>24</ele>
        <time>2023-11-15T09:01:28Z</time>
      </trkpt>
      <trkpt lat="47.24591" lon="-1.51333">
        <ele>24</ele>
        <time>2023-11-15T09:02:06Z</time>
      </trkpt>
      <trkpt lat="47.24577" lon="-1.51094">
        <ele>23</ele>
        <time>2023-11-15T09:04:16Z</time>
      </trkpt>
      <trkpt lat="47.24486" lon="-1.50985">
        <ele>18</ele>
        <time>2023-11-15T09:05:50Z</time>
      </trkpt>
      <trkpt lat="47.24539" lon="-1.50762">
        <ele>17</ele>
        <time>2023-11-15T09:07:59Z</time>
      </trkpt>
      <trkpt lat="47.24403" lon="-1.50461">
        <ele>11</ele>
        <time>2023-11-15T09:11:15Z</time>
      </trkpt>
      <trkpt lat="47.24625" lon="-1.50221">
        <ele>11</ele>
        <time>2023-11-15T09:14:56Z</time>
      </trkpt>
      <trkpt lat="47.2467" lon="-1.49915">
        <ele>13</ele>
        <time>2023-11-15T09:17:46Z</time>
      </trkpt>
      <trkpt lat="47.2466" lon="-1.49553">
        <ele>16</ele>
        <time>2023-11-15T09:21:03Z</time>
      </trkpt>
      <trkpt lat="47.24736" lon="-1.49175">
        <ele>9</ele>
        <time>2023-11-15T09:24:37Z</time>
      </trkpt>
      <trkpt lat="47.24965" lon="-1.4869">
        <ele>16</ele>
        <time>2023-11-15T09:29:58Z</time>
      </trkpt>
      <trkpt lat="47.24743" lon="-1.48654">
        <ele>9</ele>
        <time>2023-11-15T09:32:57Z</time>
      </trkpt>
      <trkpt lat="47.24344" lon="-1.48256">
        <ele>4</ele>
        <time>2023-11-15T09:39:23Z</time>
      </trkpt>
      <trkpt lat="47.24074" lon="-1.47991">
        <ele>6</ele>
        <time>2023-11-15T09:43:43Z</time>
      </trkpt>
      <trkpt lat="47.23911" lon="-1.47644">
        <ele>8</ele>
        <time>2023-11-15T09:47:32Z</time>
      </trkpt>
      <trkpt lat="47.23686" lon="-1.47792">
        <ele>7</ele>
        <time>2023-11-15T09:50:49Z</time>
      </trkpt>
      <trkpt lat="47.2335" lon="-1.47491">
        <ele>5</ele>
        <time>2023-11-15T09:56:04Z</time>
      </trkpt>
      <trkpt lat="47.23132" lon="-1.47083">
        <ele>4</ele>
        <time>2023-11-15T10:00:46Z</time>
      </trkpt>
      <trkpt lat="47.22941" lon="-1.46889">
        <ele>5</ele>
        <time>2023-11-15T10:03:52Z</time>
      </trkpt>
      <trkpt lat="47.22592" lon="-1.4705">
        <ele>4</ele>
        <time>2023-11-15T10:08:45Z</time>
      </trkpt>
      <trkpt lat="47.22586" lon="-1.4681">
        <ele>4</ele>
        <time>2023-11-15T10:10:56Z</time>
      </trkpt>
      <trkpt lat="47.22506" lon="-1.46656">
        <ele>6</ele>
        <time>2023-11-15T10:12:41Z</time>
      </trkpt>
      <trkpt lat="47.22971" lon="-1.45916">
        <ele>5</ele>
        <time>2023-11-15T10:21:49Z</time>
      </trkpt>
      <trkpt lat="47.23449" lon="-1.45292">
        <ele>4</ele>
        <time>2023-11-15T10:30:21Z</time>
      </trkpt>
      <trkpt lat="47.22954" lon="-1.44917">
        <ele>4</ele>
        <time>2023-11-15T10:37:46Z</time>
      </trkpt>
      <trkpt lat="47.22761" lon="-1.45122">
        <ele>4</ele>
        <time>2023-11-15T10:40:57Z</time>
      </trkpt>
      <trkpt lat="47.22753" lon="-1.45277">
        <ele>5</ele>
        <time>2023-11-15T10:42:21Z</time>
      </trkpt>
      <trkpt lat="47.22486" lon="-1.45725">
        <ele>7</ele>
        <time>2023-11-15T10:47:45Z</time>
      </trkpt>
      <trkpt lat="47.22081" lon="-1.45579">
        <ele>4</ele>
        <time>2023-11-15T10:53:19Z</time>
      </trkpt>
      <trkpt lat="47.22075" lon="-1.45278">
        <ele>3</ele>
        <time>2023-11-15T10:56:03Z</time>
      </trkpt>
      <trkpt lat="47.21984" lon="-1.45155">
        <ele>2</ele>
        <time>2023-11-15T10:57:42Z</time>
      </trkpt>
      <trkpt lat="47.21915" lon="-1.4537">
        <ele>5</ele>
        <time>2023-11-15T10:59:51Z</time>
      </trkpt>
      <trkpt lat="47.21756" lon="-1.45753">
        <ele>4</ele>
        <time>2023-11-15T11:03:55Z</time>
      </trkpt>
      <trkpt lat="47.21712" lon="-1.46141">
        <ele>5</ele>
        <time>2023-11-15T11:07:29Z</time>
      </trkpt>
      <trkpt lat="47.21694" lon="-1.45806">
        <ele>5</ele>
        <time>2023-11-15T11:10:32Z</time>
      </trkpt>
      <trkpt lat="47.21455" lon="-1.45729">
        <ele>5</ele>
        <time>2023-11-15T11:13:48Z</time>
      </trkpt>
      <trkpt lat="47.21234" lon="-1.45694">
        <ele>4</ele>
        <time>2023-11-15T11:16:46Z</time>
      </trkpt>
      <trkpt lat="47.20808" lon="-1.45334">
        <ele>9</ele>
        <time>2023-11-15T11:23:19Z</time>
      </trkpt>
      <trkpt lat="47.20931" lon="-1.45145">
        <ele>6</ele>
        <time>2023-11-15T11:25:42Z</time>
      </trkpt>
      <trkpt lat="47.20779" lon="-1.45111">
        <ele>6</ele>
        <time>2023-11-15T11:27:45Z</time>
      </trkpt>
      <trkpt lat="47.20458" lon="-1.45548">
        <ele>13</ele>
        <time>2023-11-15T11:33:35Z</time>
      </trkpt>
      <trkpt lat="47.2054" lon="-1.45669">
        <ele>9</ele>
        <time>2023-11-15T11:35:08Z</time>
      </trkpt>
      <trkpt lat="47.20418" lon="-1.45952">
        <ele>14</ele>
        <time>2023-11-15T11:38:10Z</time>
      </trkpt>
      <trkpt lat="47.20307" lon="-1.46063">
        <ele>14</ele>
        <time>2023-11-15T11:39:58Z</time>
      </trkpt>
      <trkpt lat="47.20324" lon="-1.46149">
        <ele>16</ele>
        <time>2023-11-15T11:40:46Z</time>
      </trkpt>
      <trkpt lat="47.20878" lon="-1.46647">
        <ele>23</ele>
        <time>2023-11-15T11:49:26Z</time>
      </trkpt>
      <trkpt lat="47.20791" lon="-1.46922">
        <ele>24</ele>
        <time>2023-11-15T11:52:11Z</time>
      </trkpt>
      <trkpt lat="47.20628" lon="-1.4701">
        <ele>21</ele>
        <time>2023-11-15T11:54:30Z</time>
      </trkpt>
      <trkpt lat="47.20587" lon="-1.46743">
        <ele>23</ele>
        <time>2023-11-15T11:56:59Z</time>
      </trkpt>
      <trkpt lat="47.20236" lon="-1.46707">
        <ele>20</ele>
        <time>2023-11-15T12:01:41Z</time>
      </trkpt>
      <trkpt lat="47.20123" lon="-1.46674">
        <ele>22</ele>
        <time>2023-11-15T12:03:13Z</time>
      </trkpt>
      <trkpt lat="47.20099" lon="-1.46844">
        <ele>24</ele>
        <time>2023-11-15T12:04:47Z</time>
      </trkpt>
      <trkpt lat="47.19733" lon="-1.46974">
        <ele>25</ele>
        <time>2023-11-15T12:09:49Z</time>
      </trkpt>
      <trkpt lat="47.19383" lon="-1.47002">
        <ele>29</ele>
        <time>2023-11-15T12:14:29Z</time>
      </trkpt>
      <trkpt lat="47.19361" lon="-1.4732">
        <ele>25</ele>
        <time>2023-11-15T12:17:23Z</time>
      </trkpt>
      <trkpt lat="47.19608" lon="-1.47291">
        <ele>28</ele>
        <time>2023-11-15T12:20:42Z</time>
      </trkpt>
      <trkpt lat="47.19917" lon="-1.47349">
        <ele>17</ele>
        <time>2023-11-15T12:24:51Z</time>
      </trkpt>
      <trkpt lat="47.20062" lon="-1.47428">
        <ele>17</ele>
        <time>2023-11-15T12:26:55Z</time>
      </trkpt>
      <trkpt lat="47.20283" lon="-1.47265">
        <ele>20</ele>
        <time>2023-11-15T12:30:13Z</time>
      </trkpt>
      <trkpt lat="47.20515" lon="-1.47409">
        <ele>19</ele>
        <time>2023-11-15T12:33:34Z</time>
      </trkpt>
      <trkpt lat="47.20612" lon="-1.47598">
        <ele>15</ele>
        <time>2023-11-15T12:35:43Z</time>
      </trkpt>
      <trkpt lat="47.20816" lon="-1.47394">
        <ele>22</ele>
        <time>2023-11-15T12:39:01Z</time>
      </trkpt>
      <trkpt lat="47.20868" lon="-1.47532">
        <ele>21</ele>
        <time>2023-11-15T12:40:27Z</time>
      </trkpt>
      <trkpt lat="47.21208" lon="-1.47506">
        <ele>19</ele>
        <time>2023-11-15T12:44:59Z</time>
      </trkpt>
      <trkpt lat="47.21461" lon="-1.47746">
        <ele>4</ele>
        <time>2023-11-15T12:49:00Z</time>
      </trkpt>
      <trkpt lat="47.216" lon="-1.4747">
        <ele>5</ele>
        <time>2023-11-15T12:52:07Z</time>
      </trkpt>
      <trkpt lat="47.21794" lon="-1.47445">
        <ele>3</ele>
        <time>2023-11-15T12:54:43Z</time>
      </trkpt>
      <trkpt lat="47.21974" lon="-1.46302">
        <ele>3</ele>
        <time>2023-11-15T13:05:21Z</time>
      </trkpt>
      <trkpt lat="47.22314" lon="-1.46409">
        <ele>5</ele>
        <time>2023-11-15T13:09:59Z</time>
      </trkpt>
      <trkpt lat="47.2257" lon="-1.46858">
        <ele>4</ele>
        <time>2023-11-15T13:15:18Z</time>
      </trkpt>
      <trkpt lat="47.22618" lon="-1.47019">
        <ele>4</ele>
        <time>2023-11-15T13:16:54Z</time>
      </trkpt>
    </trkseg>
  </trk>
</gpx>